sensor_id;sensor_type;location;lat;lon;timestamp;temperature;humidity
22635;DHT22;11484;50.858;4.384;2023-06-22T00:02:15;22.70;99.80
22635;DHT22;11484;50.858;4.384;2023-06-22T00:04:41;22.70;99.90
22635;DHT22;11484;50.858;4.384;2023-06-22T00:07:07;22.70;99.90
22635;DHT22;11484;50.858;4.384;2023-06-22T00:09:33;22.70;99.90
22635;DHT22;11484;50.858;4.384;2023-06-22T00:11:59;22.80;99.90
22635;DHT22;11484;50.858;4.384;2023-06-22T00:14:25;22.60;99.90
22635;DHT22;11484;50.858;4.384;2023-06-22T00:16:51;22.70;99.90
22635;DHT22;11484;50.858;4.384;2023-06-22T00:19:23;22.80;99.90
22635;DHT22;11484;50.858;4.384;2023-06-22T00:21:49;22.90;99.90
22635;DHT22;11484;50.858;4.384;2023-06-22T00:24:21;22.90;99.60
22635;DHT22;11484;50.858;4.384;2023-06-22T00:26:50;22.90;99.70
22635;DHT22;11484;50.858;4.384;2023-06-22T00:29:16;22.90;99.70
22635;DHT22;11484;50.858;4.384;2023-06-22T00:31:42;23.00;99.70
22635;DHT22;11484;50.858;4.384;2023-06-22T00:34:08;23.00;99.40
22635;DHT22;11484;50.858;4.384;2023-06-22T00:36:35;23.10;99.10
22635;DHT22;11484;50.858;4.384;2023-06-22T00:39:00;23.10;99.10
22635;DHT22;11484;50.858;4.384;2023-06-22T00:41:26;23.10;98.90
22635;DHT22;11484;50.858;4.384;2023-06-22T00:43:54;23.10;99.30
22635;DHT22;11484;50.858;4.384;2023-06-22T00:46:21;23.10;99.50
22635;DHT22;11484;50.858;4.384;2023-06-22T00:48:48;23.10;99.60
22635;DHT22;11484;50.858;4.384;2023-06-22T00:51:14;23.00;99.70
22635;DHT22;11484;50.858;4.384;2023-06-22T00:53:40;22.90;99.90
22635;DHT22;11484;50.858;4.384;2023-06-22T00:56:07;22.80;99.90
22635;DHT22;11484;50.858;4.384;2023-06-22T00:58:35;22.80;99.90
22635;DHT22;11484;50.858;4.384;2023-06-22T01:01:01;22.80;99.90
22635;DHT22;11484;50.858;4.384;2023-06-22T01:03:28;22.70;99.90
22635;DHT22;11484;50.858;4.384;2023-06-22T01:06:02;22.60;99.90
22635;DHT22;11484;50.858;4.384;2023-06-22T01:08:57;22.50;99.90
22635;DHT22;11484;50.858;4.384;2023-06-22T01:11:32;22.40;99.90
22635;DHT22;11484;50.858;4.384;2023-06-22T01:15:11;22.30;99.90
22635;DHT22;11484;50.858;4.384;2023-06-22T01:17:08;22.20;99.90
22635;DHT22;11484;50.858;4.384;2023-06-22T01:19:49;22.20;99.90
22635;DHT22;11484;50.858;4.384;2023-06-22T01:22:23;22.30;99.90
22635;DHT22;11484;50.858;4.384;2023-06-22T01:25:10;22.30;99.90
22635;DHT22;11484;50.858;4.384;2023-06-22T01:27:54;22.40;99.90
22635;DHT22;11484;50.858;4.384;2023-06-22T01:30:22;22.40;99.90
22635;DHT22;11484;50.858;4.384;2023-06-22T01:32:48;22.50;99.90
22635;DHT22;11484;50.858;4.384;2023-06-22T01:35:15;22.50;99.90
22635;DHT22;11484;50.858;4.384;2023-06-22T01:37:41;22.50;99.90
22635;DHT22;11484;50.858;4.384;2023-06-22T01:40:07;22.60;99.90
22635;DHT22;11484;50.858;4.384;2023-06-22T01:42:34;22.60;99.90
22635;DHT22;11484;50.858;4.384;2023-06-22T01:45:01;22.60;99.90
22635;DHT22;11484;50.858;4.384;2023-06-22T01:47:27;22.60;99.90
22635;DHT22;11484;50.858;4.384;2023-06-22T01:49:53;22.70;99.90
22635;DHT22;11484;50.858;4.384;2023-06-22T01:52:20;22.70;99.90
22635;DHT22;11484;50.858;4.384;2023-06-22T01:54:49;22.80;99.90
22635;DHT22;11484;50.858;4.384;2023-06-22T01:57:15;22.80;99.90
22635;DHT22;11484;50.858;4.384;2023-06-22T02:00:02;22.80;99.90
22635;DHT22;11484;50.858;4.384;2023-06-22T02:02:39;22.80;99.90
22635;DHT22;11484;50.858;4.384;2023-06-22T02:05:10;22.80;99.90
22635;DHT22;11484;50.858;4.384;2023-06-22T02:07:52;22.80;99.90
22635;DHT22;11484;50.858;4.384;2023-06-22T02:10:20;22.70;99.90
22635;DHT22;11484;50.858;4.384;2023-06-22T02:12:48;22.70;99.90
22635;DHT22;11484;50.858;4.384;2023-06-22T02:15:14;22.60;99.90
22635;DHT22;11484;50.858;4.384;2023-06-22T02:17:40;22.50;99.90
22635;DHT22;11484;50.858;4.384;2023-06-22T02:20:12;22.50;99.90
22635;DHT22;11484;50.858;4.384;2023-06-22T02:22:38;22.40;99.90
22635;DHT22;11484;50.858;4.384;2023-06-22T02:25:04;22.30;99.90
22635;DHT22;11484;50.858;4.384;2023-06-22T02:27:30;22.20;99.90
22635;DHT22;11484;50.858;4.384;2023-06-22T02:29:56;22.20;99.90
22635;DHT22;11484;50.858;4.384;2023-06-22T02:32:22;22.30;99.90
22635;DHT22;11484;50.858;4.384;2023-06-22T02:34:47;22.20;99.90
22635;DHT22;11484;50.858;4.384;2023-06-22T02:37:14;22.10;99.90
22635;DHT22;11484;50.858;4.384;2023-06-22T02:39:40;22.00;99.90
22635;DHT22;11484;50.858;4.384;2023-06-22T02:42:06;22.10;99.90
22635;DHT22;11484;50.858;4.384;2023-06-22T02:44:32;22.00;99.90
22635;DHT22;11484;50.858;4.384;2023-06-22T02:46:57;22.00;99.90
22635;DHT22;11484;50.858;4.384;2023-06-22T02:49:23;22.00;99.90
22635;DHT22;11484;50.858;4.384;2023-06-22T02:51:49;22.00;99.90
22635;DHT22;11484;50.858;4.384;2023-06-22T02:54:15;22.00;99.90
22635;DHT22;11484;50.858;4.384;2023-06-22T02:56:42;22.00;99.90
22635;DHT22;11484;50.858;4.384;2023-06-22T02:59:09;22.00;99.90
22635;DHT22;11484;50.858;4.384;2023-06-22T03:01:36;22.00;99.90
22635;DHT22;11484;50.858;4.384;2023-06-22T03:04:08;22.00;99.90
22635;DHT22;11484;50.858;4.384;2023-06-22T03:06:35;21.90;99.90
22635;DHT22;11484;50.858;4.384;2023-06-22T03:09:03;21.90;99.90
22635;DHT22;11484;50.858;4.384;2023-06-22T03:11:30;21.80;99.90
22635;DHT22;11484;50.858;4.384;2023-06-22T03:13:56;21.70;99.90
22635;DHT22;11484;50.858;4.384;2023-06-22T03:16:22;21.70;99.90
22635;DHT22;11484;50.858;4.384;2023-06-22T03:18:48;21.70;99.90
22635;DHT22;11484;50.858;4.384;2023-06-22T03:21:13;21.70;99.90
22635;DHT22;11484;50.858;4.384;2023-06-22T03:23:41;21.70;99.90
22635;DHT22;11484;50.858;4.384;2023-06-22T03:26:07;21.70;99.90
22635;DHT22;11484;50.858;4.384;2023-06-22T03:28:33;21.80;99.90
22635;DHT22;11484;50.858;4.384;2023-06-22T03:30:59;21.80;99.90
22635;DHT22;11484;50.858;4.384;2023-06-22T03:33:25;21.90;99.90
22635;DHT22;11484;50.858;4.384;2023-06-22T03:35:50;21.90;99.90
22635;DHT22;11484;50.858;4.384;2023-06-22T03:38:17;21.90;99.90
22635;DHT22;11484;50.858;4.384;2023-06-22T03:40:42;21.80;99.90
22635;DHT22;11484;50.858;4.384;2023-06-22T03:43:08;21.80;99.90
22635;DHT22;11484;50.858;4.384;2023-06-22T03:45:34;21.80;99.90
22635;DHT22;11484;50.858;4.384;2023-06-22T03:48:00;21.80;99.90
22635;DHT22;11484;50.858;4.384;2023-06-22T03:50:27;21.90;99.90
22635;DHT22;11484;50.858;4.384;2023-06-22T03:52:52;22.00;99.90
22635;DHT22;11484;50.858;4.384;2023-06-22T03:55:20;21.90;99.90
22635;DHT22;11484;50.858;4.384;2023-06-22T03:57:45;21.90;99.90
22635;DHT22;11484;50.858;4.384;2023-06-22T04:00:12;21.90;99.90
22635;DHT22;11484;50.858;4.384;2023-06-22T04:02:38;21.90;99.90
22635;DHT22;11484;50.858;4.384;2023-06-22T04:05:08;21.80;99.90
22635;DHT22;11484;50.858;4.384;2023-06-22T04:07:33;21.80;99.90
22635;DHT22;11484;50.858;4.384;2023-06-22T04:09:59;21.80;99.90
22635;DHT22;11484;50.858;4.384;2023-06-22T04:12:25;21.80;99.90
22635;DHT22;11484;50.858;4.384;2023-06-22T04:14:51;21.90;99.90
22635;DHT22;11484;50.858;4.384;2023-06-22T04:17:17;21.90;99.90
22635;DHT22;11484;50.858;4.384;2023-06-22T04:19:43;21.90;99.90
22635;DHT22;11484;50.858;4.384;2023-06-22T04:22:08;21.90;99.90
22635;DHT22;11484;50.858;4.384;2023-06-22T04:24:35;21.70;99.90
22635;DHT22;11484;50.858;4.384;2023-06-22T04:27:01;21.60;99.90
22635;DHT22;11484;50.858;4.384;2023-06-22T04:29:29;21.60;99.90
22635;DHT22;11484;50.858;4.384;2023-06-22T04:31:56;21.70;99.90
22635;DHT22;11484;50.858;4.384;2023-06-22T04:34:24;21.80;99.90
22635;DHT22;11484;50.858;4.384;2023-06-22T04:36:51;21.90;99.90
22635;DHT22;11484;50.858;4.384;2023-06-22T04:39:17;21.80;99.90
22635;DHT22;11484;50.858;4.384;2023-06-22T04:41:44;21.80;99.90
22635;DHT22;11484;50.858;4.384;2023-06-22T04:44:11;21.80;99.90
22635;DHT22;11484;50.858;4.384;2023-06-22T04:46:37;21.80;99.90
22635;DHT22;11484;50.858;4.384;2023-06-22T04:49:06;21.80;99.90
22635;DHT22;11484;50.858;4.384;2023-06-22T04:51:44;21.70;99.90
22635;DHT22;11484;50.858;4.384;2023-06-22T04:54:10;21.70;99.90
22635;DHT22;11484;50.858;4.384;2023-06-22T04:56:36;21.70;99.90
22635;DHT22;11484;50.858;4.384;2023-06-22T04:59:02;21.80;99.90
22635;DHT22;11484;50.858;4.384;2023-06-22T05:01:28;21.80;99.90
22635;DHT22;11484;50.858;4.384;2023-06-22T05:03:56;21.80;99.90
22635;DHT22;11484;50.858;4.384;2023-06-22T05:06:23;21.90;99.90
22635;DHT22;11484;50.858;4.384;2023-06-22T05:08:56;21.90;99.90
22635;DHT22;11484;50.858;4.384;2023-06-22T05:11:24;22.00;99.90
22635;DHT22;11484;50.858;4.384;2023-06-22T05:13:50;22.00;99.90
22635;DHT22;11484;50.858;4.384;2023-06-22T05:16:15;22.00;99.90
22635;DHT22;11484;50.858;4.384;2023-06-22T05:18:41;22.00;99.90
22635;DHT22;11484;50.858;4.384;2023-06-22T05:21:07;22.00;99.90
22635;DHT22;11484;50.858;4.384;2023-06-22T05:23:33;21.90;99.90
22635;DHT22;11484;50.858;4.384;2023-06-22T05:25:58;22.00;99.90
22635;DHT22;11484;50.858;4.384;2023-06-22T05:28:24;22.00;99.90
22635;DHT22;11484;50.858;4.384;2023-06-22T05:30:50;22.00;99.90
22635;DHT22;11484;50.858;4.384;2023-06-22T05:33:15;22.10;99.90
22635;DHT22;11484;50.858;4.384;2023-06-22T05:35:41;22.00;99.90
22635;DHT22;11484;50.858;4.384;2023-06-22T05:38:08;22.00;99.90
22635;DHT22;11484;50.858;4.384;2023-06-22T05:40:33;22.10;99.90
22635;DHT22;11484;50.858;4.384;2023-06-22T05:42:59;22.00;99.90
22635;DHT22;11484;50.858;4.384;2023-06-22T05:45:27;22.00;99.90
22635;DHT22;11484;50.858;4.384;2023-06-22T05:47:52;21.80;99.90
22635;DHT22;11484;50.858;4.384;2023-06-22T05:50:18;21.50;99.90
22635;DHT22;11484;50.858;4.384;2023-06-22T05:52:44;21.20;99.90
22635;DHT22;11484;50.858;4.384;2023-06-22T05:55:09;21.00;99.90
22635;DHT22;11484;50.858;4.384;2023-06-22T05:57:39;20.80;99.90
22635;DHT22;11484;50.858;4.384;2023-06-22T06:00:06;20.70;99.90
22635;DHT22;11484;50.858;4.384;2023-06-22T06:02:36;20.70;99.90
22635;DHT22;11484;50.858;4.384;2023-06-22T06:05:01;20.60;99.90
22635;DHT22;11484;50.858;4.384;2023-06-22T06:07:28;20.60;99.90
22635;DHT22;11484;50.858;4.384;2023-06-22T06:09:55;20.70;99.90
22635;DHT22;11484;50.858;4.384;2023-06-22T06:12:21;20.70;99.90
22635;DHT22;11484;50.858;4.384;2023-06-22T06:14:47;20.70;99.90
22635;DHT22;11484;50.858;4.384;2023-06-22T06:17:13;20.80;99.90
22635;DHT22;11484;50.858;4.384;2023-06-22T06:19:39;20.80;99.90
22635;DHT22;11484;50.858;4.384;2023-06-22T06:22:04;20.90;99.90
22635;DHT22;11484;50.858;4.384;2023-06-22T06:24:30;20.90;99.90
22635;DHT22;11484;50.858;4.384;2023-06-22T06:26:56;21.00;99.90
22635;DHT22;11484;50.858;4.384;2023-06-22T06:29:22;21.00;99.90
22635;DHT22;11484;50.858;4.384;2023-06-22T06:31:49;21.10;99.90
22635;DHT22;11484;50.858;4.384;2023-06-22T06:34:14;21.00;99.90
22635;DHT22;11484;50.858;4.384;2023-06-22T06:36:40;21.00;99.90
22635;DHT22;11484;50.858;4.384;2023-06-22T06:39:06;21.20;99.90
22635;DHT22;11484;50.858;4.384;2023-06-22T06:41:32;21.40;99.90
22635;DHT22;11484;50.858;4.384;2023-06-22T06:43:57;21.60;99.90
22635;DHT22;11484;50.858;4.384;2023-06-22T06:46:23;21.60;99.90
22635;DHT22;11484;50.858;4.384;2023-06-22T06:48:49;21.60;99.90
22635;DHT22;11484;50.858;4.384;2023-06-22T06:51:14;21.60;99.90
22635;DHT22;11484;50.858;4.384;2023-06-22T06:53:40;21.60;99.90
22635;DHT22;11484;50.858;4.384;2023-06-22T06:56:06;21.50;99.90
22635;DHT22;11484;50.858;4.384;2023-06-22T06:58:31;21.50;99.90
22635;DHT22;11484;50.858;4.384;2023-06-22T07:00:58;21.60;99.90
22635;DHT22;11484;50.858;4.384;2023-06-22T07:03:23;21.70;99.90
22635;DHT22;11484;50.858;4.384;2023-06-22T07:05:49;21.90;99.90
22635;DHT22;11484;50.858;4.384;2023-06-22T07:08:15;22.00;99.90
22635;DHT22;11484;50.858;4.384;2023-06-22T07:10:41;22.10;99.90
22635;DHT22;11484;50.858;4.384;2023-06-22T07:13:06;22.10;99.90
22635;DHT22;11484;50.858;4.384;2023-06-22T07:15:32;22.10;99.90
22635;DHT22;11484;50.858;4.384;2023-06-22T07:17:57;22.00;99.90
22635;DHT22;11484;50.858;4.384;2023-06-22T07:20:23;21.80;99.90
22635;DHT22;11484;50.858;4.384;2023-06-22T07:22:49;21.80;99.90
22635;DHT22;11484;50.858;4.384;2023-06-22T07:25:14;21.90;99.90
22635;DHT22;11484;50.858;4.384;2023-06-22T07:27:45;22.10;99.90
22635;DHT22;11484;50.858;4.384;2023-06-22T07:30:11;22.30;99.90
22635;DHT22;11484;50.858;4.384;2023-06-22T07:32:37;22.50;99.90
22635;DHT22;11484;50.858;4.384;2023-06-22T07:35:03;22.60;99.90
22635;DHT22;11484;50.858;4.384;2023-06-22T07:37:30;22.80;99.90
22635;DHT22;11484;50.858;4.384;2023-06-22T07:39:56;22.60;99.90
22635;DHT22;11484;50.858;4.384;2023-06-22T07:42:26;22.60;99.90
22635;DHT22;11484;50.858;4.384;2023-06-22T07:44:52;22.50;99.90
22635;DHT22;11484;50.858;4.384;2023-06-22T07:47:17;22.40;99.90
22635;DHT22;11484;50.858;4.384;2023-06-22T07:49:45;22.40;99.90
22635;DHT22;11484;50.858;4.384;2023-06-22T07:52:11;22.40;99.90
22635;DHT22;11484;50.858;4.384;2023-06-22T07:54:37;22.50;99.90
22635;DHT22;11484;50.858;4.384;2023-06-22T07:57:03;22.70;99.90
22635;DHT22;11484;50.858;4.384;2023-06-22T07:59:28;22.80;99.90
22635;DHT22;11484;50.858;4.384;2023-06-22T08:01:55;23.00;99.90
22635;DHT22;11484;50.858;4.384;2023-06-22T08:04:20;23.10;99.90
22635;DHT22;11484;50.858;4.384;2023-06-22T08:06:46;23.10;99.90
22635;DHT22;11484;50.858;4.384;2023-06-22T08:09:12;23.10;99.90
22635;DHT22;11484;50.858;4.384;2023-06-22T08:11:38;23.10;99.90
22635;DHT22;11484;50.858;4.384;2023-06-22T08:14:03;23.10;99.90
22635;DHT22;11484;50.858;4.384;2023-06-22T08:16:29;22.90;99.90
22635;DHT22;11484;50.858;4.384;2023-06-22T08:18:55;22.80;99.90
22635;DHT22;11484;50.858;4.384;2023-06-22T08:21:20;22.80;99.90
22635;DHT22;11484;50.858;4.384;2023-06-22T08:23:46;22.60;99.90
22635;DHT22;11484;50.858;4.384;2023-06-22T08:26:12;22.50;99.90
22635;DHT22;11484;50.858;4.384;2023-06-22T08:28:40;22.60;99.90
22635;DHT22;11484;50.858;4.384;2023-06-22T08:31:06;22.50;99.90
22635;DHT22;11484;50.858;4.384;2023-06-22T08:33:32;22.50;99.90
22635;DHT22;11484;50.858;4.384;2023-06-22T08:35:58;22.30;99.90
22635;DHT22;11484;50.858;4.384;2023-06-22T08:38:25;22.20;99.90
22635;DHT22;11484;50.858;4.384;2023-06-22T08:40:51;22.10;99.90
22635;DHT22;11484;50.858;4.384;2023-06-22T08:43:17;22.20;99.90
22635;DHT22;11484;50.858;4.384;2023-06-22T08:45:42;22.30;99.90
22635;DHT22;11484;50.858;4.384;2023-06-22T08:48:08;22.30;99.90
22635;DHT22;11484;50.858;4.384;2023-06-22T08:50:34;22.30;99.90
22635;DHT22;11484;50.858;4.384;2023-06-22T08:52:59;22.30;99.90
22635;DHT22;11484;50.858;4.384;2023-06-22T08:55:25;22.40;99.90
22635;DHT22;11484;50.858;4.384;2023-06-22T08:57:51;22.40;99.90
22635;DHT22;11484;50.858;4.384;2023-06-22T09:00:17;22.30;99.90
22635;DHT22;11484;50.858;4.384;2023-06-22T09:02:48;22.30;99.90
22635;DHT22;11484;50.858;4.384;2023-06-22T09:05:13;22.40;99.90
22635;DHT22;11484;50.858;4.384;2023-06-22T09:07:39;22.40;99.90
22635;DHT22;11484;50.858;4.384;2023-06-22T09:10:06;22.40;99.90
22635;DHT22;11484;50.858;4.384;2023-06-22T09:12:33;22.50;99.90
22635;DHT22;11484;50.858;4.384;2023-06-22T09:15:01;22.40;99.90
22635;DHT22;11484;50.858;4.384;2023-06-22T09:17:28;22.40;99.90
22635;DHT22;11484;50.858;4.384;2023-06-22T09:19:54;22.40;99.90
22635;DHT22;11484;50.858;4.384;2023-06-22T09:22:20;22.60;99.90
22635;DHT22;11484;50.858;4.384;2023-06-22T09:24:46;22.60;99.90
22635;DHT22;11484;50.858;4.384;2023-06-22T09:27:11;22.60;99.90
22635;DHT22;11484;50.858;4.384;2023-06-22T09:29:37;22.60;99.90
22635;DHT22;11484;50.858;4.384;2023-06-22T09:32:03;22.60;99.90
22635;DHT22;11484;50.858;4.384;2023-06-22T09:34:29;22.70;99.90
22635;DHT22;11484;50.858;4.384;2023-06-22T09:36:56;22.60;99.90
22635;DHT22;11484;50.858;4.384;2023-06-22T09:39:22;22.60;99.90
22635;DHT22;11484;50.858;4.384;2023-06-22T09:41:48;22.60;99.90
22635;DHT22;11484;50.858;4.384;2023-06-22T09:44:14;22.50;99.90
22635;DHT22;11484;50.858;4.384;2023-06-22T09:46:39;22.60;99.90
22635;DHT22;11484;50.858;4.384;2023-06-22T09:49:05;22.50;99.90
22635;DHT22;11484;50.858;4.384;2023-06-22T09:51:31;22.40;99.90
22635;DHT22;11484;50.858;4.384;2023-06-22T09:53:56;22.20;99.90
22635;DHT22;11484;50.858;4.384;2023-06-22T09:56:23;21.90;99.90
22635;DHT22;11484;50.858;4.384;2023-06-22T09:58:49;21.50;99.90
22635;DHT22;11484;50.858;4.384;2023-06-22T10:01:21;21.00;99.90
22635;DHT22;11484;50.858;4.384;2023-06-22T10:03:47;20.60;99.90
22635;DHT22;11484;50.858;4.384;2023-06-22T10:06:12;20.50;99.90
22635;DHT22;11484;50.858;4.384;2023-06-22T10:08:38;20.20;99.90
22635;DHT22;11484;50.858;4.384;2023-06-22T10:11:04;20.10;99.90
22635;DHT22;11484;50.858;4.384;2023-06-22T10:13:30;20.10;99.90
22635;DHT22;11484;50.858;4.384;2023-06-22T10:15:56;20.00;99.90
22635;DHT22;11484;50.858;4.384;2023-06-22T10:18:22;19.90;99.90
22635;DHT22;11484;50.858;4.384;2023-06-22T10:20:49;19.80;99.90
22635;DHT22;11484;50.858;4.384;2023-06-22T10:23:19;19.70;99.90
22635;DHT22;11484;50.858;4.384;2023-06-22T10:25:45;19.60;99.90
22635;DHT22;11484;50.858;4.384;2023-06-22T10:28:11;19.50;99.90
22635;DHT22;11484;50.858;4.384;2023-06-22T10:30:38;19.50;99.90
22635;DHT22;11484;50.858;4.384;2023-06-22T10:33:09;19.50;99.90
22635;DHT22;11484;50.858;4.384;2023-06-22T10:35:35;19.30;99.90
22635;DHT22;11484;50.858;4.384;2023-06-22T10:38:03;19.20;99.90
22635;DHT22;11484;50.858;4.384;2023-06-22T10:40:29;19.20;99.90
22635;DHT22;11484;50.858;4.384;2023-06-22T10:42:54;19.10;99.90
22635;DHT22;11484;50.858;4.384;2023-06-22T10:45:22;19.10;99.90
22635;DHT22;11484;50.858;4.384;2023-06-22T10:47:48;19.00;99.90
22635;DHT22;11484;50.858;4.384;2023-06-22T10:50:15;19.00;99.90
22635;DHT22;11484;50.858;4.384;2023-06-22T10:52:40;19.00;99.90
22635;DHT22;11484;50.858;4.384;2023-06-22T10:55:09;18.90;99.90
22635;DHT22;11484;50.858;4.384;2023-06-22T10:57:35;18.90;99.90
22635;DHT22;11484;50.858;4.384;2023-06-22T11:00:02;19.00;99.90
22635;DHT22;11484;50.858;4.384;2023-06-22T11:02:31;19.00;99.90
22635;DHT22;11484;50.858;4.384;2023-06-22T11:04:56;19.00;99.90
22635;DHT22;11484;50.858;4.384;2023-06-22T11:07:25;19.00;99.90
22635;DHT22;11484;50.858;4.384;2023-06-22T11:09:53;19.20;99.90
22635;DHT22;11484;50.858;4.384;2023-06-22T11:12:18;19.20;99.90
22635;DHT22;11484;50.858;4.384;2023-06-22T11:14:44;19.20;99.90
22635;DHT22;11484;50.858;4.384;2023-06-22T11:17:10;19.30;99.90
22635;DHT22;11484;50.858;4.384;2023-06-22T11:19:35;19.30;99.90
22635;DHT22;11484;50.858;4.384;2023-06-22T11:22:02;19.30;99.90
22635;DHT22;11484;50.858;4.384;2023-06-22T11:24:27;19.50;99.90
22635;DHT22;11484;50.858;4.384;2023-06-22T11:26:53;19.50;99.90
22635;DHT22;11484;50.858;4.384;2023-06-22T11:29:19;19.60;99.90
22635;DHT22;11484;50.858;4.384;2023-06-22T11:31:44;19.70;99.90
22635;DHT22;11484;50.858;4.384;2023-06-22T11:34:10;19.80;99.90
22635;DHT22;11484;50.858;4.384;2023-06-22T11:36:36;19.90;99.90
22635;DHT22;11484;50.858;4.384;2023-06-22T11:39:02;19.90;99.90
22635;DHT22;11484;50.858;4.384;2023-06-22T11:41:28;19.90;99.90
22635;DHT22;11484;50.858;4.384;2023-06-22T11:43:53;19.80;99.90
22635;DHT22;11484;50.858;4.384;2023-06-22T11:46:19;19.80;99.90
22635;DHT22;11484;50.858;4.384;2023-06-22T11:48:45;19.70;99.90
22635;DHT22;11484;50.858;4.384;2023-06-22T11:51:11;19.60;99.90
22635;DHT22;11484;50.858;4.384;2023-06-22T11:53:36;19.70;99.90
22635;DHT22;11484;50.858;4.384;2023-06-22T11:56:02;19.70;99.90
22635;DHT22;11484;50.858;4.384;2023-06-22T11:58:28;19.60;99.90
22635;DHT22;11484;50.858;4.384;2023-06-22T12:00:54;19.50;99.90
22635;DHT22;11484;50.858;4.384;2023-06-22T12:03:20;19.50;99.90
22635;DHT22;11484;50.858;4.384;2023-06-22T12:05:47;19.60;99.90
22635;DHT22;11484;50.858;4.384;2023-06-22T12:08:12;19.70;99.90
22635;DHT22;11484;50.858;4.384;2023-06-22T12:10:39;19.70;99.90
22635;DHT22;11484;50.858;4.384;2023-06-22T12:13:05;19.70;99.90
22635;DHT22;11484;50.858;4.384;2023-06-22T12:15:30;19.70;99.90
22635;DHT22;11484;50.858;4.384;2023-06-22T12:17:56;19.70;99.90
22635;DHT22;11484;50.858;4.384;2023-06-22T12:20:22;19.70;99.90
22635;DHT22;11484;50.858;4.384;2023-06-22T12:22:47;19.80;99.90
22635;DHT22;11484;50.858;4.384;2023-06-22T12:25:13;19.80;99.90
22635;DHT22;11484;50.858;4.384;2023-06-22T12:27:39;19.90;99.90
22635;DHT22;11484;50.858;4.384;2023-06-22T12:30:05;19.90;99.90
22635;DHT22;11484;50.858;4.384;2023-06-22T12:32:31;19.90;99.90
22635;DHT22;11484;50.858;4.384;2023-06-22T12:34:57;19.90;99.90
22635;DHT22;11484;50.858;4.384;2023-06-22T12:37:23;19.90;99.90
22635;DHT22;11484;50.858;4.384;2023-06-22T12:39:49;19.80;99.90
22635;DHT22;11484;50.858;4.384;2023-06-22T12:42:15;19.70;99.90
22635;DHT22;11484;50.858;4.384;2023-06-22T12:44:41;19.80;99.90
22635;DHT22;11484;50.858;4.384;2023-06-22T12:47:08;19.80;99.90
22635;DHT22;11484;50.858;4.384;2023-06-22T12:49:36;19.80;99.90
22635;DHT22;11484;50.858;4.384;2023-06-22T12:52:03;19.80;99.90
22635;DHT22;11484;50.858;4.384;2023-06-22T12:54:29;19.90;99.90
22635;DHT22;11484;50.858;4.384;2023-06-22T12:56:57;19.90;99.90
22635;DHT22;11484;50.858;4.384;2023-06-22T12:59:23;19.90;99.90
22635;DHT22;11484;50.858;4.384;2023-06-22T13:01:48;19.90;99.90
22635;DHT22;11484;50.858;4.384;2023-06-22T13:04:14;20.00;99.90
22635;DHT22;11484;50.858;4.384;2023-06-22T13:06:41;20.00;99.90
22635;DHT22;11484;50.858;4.384;2023-06-22T13:09:07;19.90;99.90
22635;DHT22;11484;50.858;4.384;2023-06-22T13:11:34;19.90;99.90
22635;DHT22;11484;50.858;4.384;2023-06-22T13:13:59;19.90;99.90
22635;DHT22;11484;50.858;4.384;2023-06-22T13:16:25;19.90;99.90
22635;DHT22;11484;50.858;4.384;2023-06-22T13:18:51;19.90;99.90
22635;DHT22;11484;50.858;4.384;2023-06-22T13:21:16;19.90;99.90
22635;DHT22;11484;50.858;4.384;2023-06-22T13:23:42;20.00;99.90
22635;DHT22;11484;50.858;4.384;2023-06-22T13:26:07;20.00;99.90
22635;DHT22;11484;50.858;4.384;2023-06-22T13:28:33;20.10;99.90
22635;DHT22;11484;50.858;4.384;2023-06-22T13:30:59;20.00;99.90
22635;DHT22;11484;50.858;4.384;2023-06-22T13:33:25;20.00;99.90
22635;DHT22;11484;50.858;4.384;2023-06-22T13:35:50;19.90;99.90
22635;DHT22;11484;50.858;4.384;2023-06-22T13:38:16;19.80;99.90
22635;DHT22;11484;50.858;4.384;2023-06-22T13:40:43;19.80;99.90
22635;DHT22;11484;50.858;4.384;2023-06-22T13:43:08;19.70;99.90
22635;DHT22;11484;50.858;4.384;2023-06-22T13:45:34;19.70;99.90
22635;DHT22;11484;50.858;4.384;2023-06-22T13:48:00;19.60;99.90
22635;DHT22;11484;50.858;4.384;2023-06-22T13:50:26;19.60;99.90
22635;DHT22;11484;50.858;4.384;2023-06-22T13:52:51;19.60;99.90
22635;DHT22;11484;50.858;4.384;2023-06-22T13:55:17;19.60;99.90
22635;DHT22;11484;50.858;4.384;2023-06-22T13:57:45;19.60;99.90
22635;DHT22;11484;50.858;4.384;2023-06-22T14:00:11;19.60;99.90
22635;DHT22;11484;50.858;4.384;2023-06-22T14:02:40;19.50;99.90
22635;DHT22;11484;50.858;4.384;2023-06-22T14:05:07;19.50;99.90
22635;DHT22;11484;50.858;4.384;2023-06-22T14:07:33;19.60;99.90
22635;DHT22;11484;50.858;4.384;2023-06-22T14:09:59;19.50;99.90
22635;DHT22;11484;50.858;4.384;2023-06-22T14:12:25;19.50;99.90
22635;DHT22;11484;50.858;4.384;2023-06-22T14:14:50;19.50;99.90
22635;DHT22;11484;50.858;4.384;2023-06-22T14:17:16;19.40;99.90
22635;DHT22;11484;50.858;4.384;2023-06-22T14:19:42;19.30;99.90
22635;DHT22;11484;50.858;4.384;2023-06-22T14:22:08;19.30;99.90
22635;DHT22;11484;50.858;4.384;2023-06-22T14:24:33;19.20;99.90
22635;DHT22;11484;50.858;4.384;2023-06-22T14:26:59;19.20;99.90
22635;DHT22;11484;50.858;4.384;2023-06-22T14:29:27;19.30;99.90
22635;DHT22;11484;50.858;4.384;2023-06-22T14:31:53;19.40;99.90
22635;DHT22;11484;50.858;4.384;2023-06-22T14:34:19;19.30;99.90
22635;DHT22;11484;50.858;4.384;2023-06-22T14:36:44;19.30;99.90
22635;DHT22;11484;50.858;4.384;2023-06-22T14:39:10;19.30;99.90
22635;DHT22;11484;50.858;4.384;2023-06-22T14:41:36;19.30;99.90
22635;DHT22;11484;50.858;4.384;2023-06-22T14:44:01;19.20;99.90
22635;DHT22;11484;50.858;4.384;2023-06-22T14:46:27;19.20;99.90
22635;DHT22;11484;50.858;4.384;2023-06-22T14:48:53;19.20;99.90
22635;DHT22;11484;50.858;4.384;2023-06-22T14:51:19;19.20;99.90
22635;DHT22;11484;50.858;4.384;2023-06-22T14:53:45;19.20;99.90
22635;DHT22;11484;50.858;4.384;2023-06-22T14:56:12;19.20;99.90
22635;DHT22;11484;50.858;4.384;2023-06-22T14:58:40;19.20;99.90
22635;DHT22;11484;50.858;4.384;2023-06-22T15:01:06;19.30;99.90
22635;DHT22;11484;50.858;4.384;2023-06-22T15:03:34;19.30;99.90
22635;DHT22;11484;50.858;4.384;2023-06-22T15:06:02;19.40;99.90
22635;DHT22;11484;50.858;4.384;2023-06-22T15:08:28;19.50;99.90
22635;DHT22;11484;50.858;4.384;2023-06-22T15:10:54;19.40;99.90
22635;DHT22;11484;50.858;4.384;2023-06-22T15:13:20;19.40;99.90
22635;DHT22;11484;50.858;4.384;2023-06-22T15:15:48;19.30;99.90
22635;DHT22;11484;50.858;4.384;2023-06-22T15:18:17;19.30;99.90
22635;DHT22;11484;50.858;4.384;2023-06-22T15:20:43;19.40;99.90
22635;DHT22;11484;50.858;4.384;2023-06-22T15:23:12;19.40;99.90
22635;DHT22;11484;50.858;4.384;2023-06-22T15:25:38;19.40;99.90
22635;DHT22;11484;50.858;4.384;2023-06-22T15:28:04;19.40;99.90